Time;durP1;ratioP1;P1;durP2;ratioP2;P2;SDS_P1;SDS_P2;PMS_P1;PMS_P2;Temp;Humidity;BMP_temperature;BMP_pressure;BME280_temperature;BME280_humidity;BME280_pressure;Samples;Min_cycle;Max_cycle;Signal;HPM_P1;HPM_P2
2021/08/24 00:01:09;;;;;;;10.75;9.65;;;;;;;16.80;73.26;97951.94;4916810;29;20039;-77
2021/08/24 00:03:34;;;;;;;11.73;9.73;;;;;;;16.74;73.56;97940.63;4885966;29;20032;-77
2021/08/24 00:06:00;;;;;;;12.57;9.32;;;;;;;16.73;73.53;97946.16;4900981;29;20495;-77
2021/08/24 00:08:25;;;;;;;11.65;9.63;;;;;;;16.72;73.61;97947.19;4900725;29;20094;-77
2021/08/24 00:10:54;;;;;;;12.43;10.40;;;;;;;16.62;73.88;97940.91;4883817;29;20035;-77
2021/08/24 00:13:21;;;;;;;16.30;11.27;;;;;;;16.76;73.55;97949.03;4914770;29;20534;-77
2021/08/24 00:15:48;;;;;;;17.02;10.90;;;;;;;16.80;73.48;97947.44;4899043;29;20063;-77
2021/08/24 00:18:14;;;;;;;16.10;11.40;;;;;;;16.80;73.73;97938.78;4927234;29;20067;-77
2021/08/24 00:20:43;;;;;;;14.93;12.10;;;;;;;16.77;73.52;97942.72;4879084;29;20032;-77
2021/08/24 00:23:11;;;;;;;12.82;11.13;;;;;;;16.85;73.25;97936.16;4899058;29;20118;-77
2021/08/24 00:25:37;;;;;;;14.00;11.70;;;;;;;16.85;73.28;97952.72;4914836;29;20430;-77
2021/08/24 00:28:03;;;;;;;14.32;10.60;;;;;;;16.80;73.58;97944.81;4914593;29;20036;-77
2021/08/24 00:30:28;;;;;;;14.45;11.32;;;;;;;16.82;73.17;97945.34;4914832;29;20562;-77
2021/08/24 00:32:54;;;;;;;15.52;10.40;;;;;;;16.81;73.10;97945.59;4899043;29;20442;-77
2021/08/24 00:35:20;;;;;;;14.02;10.88;;;;;;;16.84;73.13;97945.91;4915000;29;20028;-77
2021/08/24 00:37:45;;;;;;;12.60;10.32;;;;;;;16.82;73.37;97947.19;4914371;29;20036;-77
2021/08/24 00:40:11;;;;;;;13.95;10.73;;;;;;;16.76;73.24;97940.34;4899156;29;20486;-77
2021/08/24 00:42:38;;;;;;;14.32;11.20;;;;;;;16.71;73.20;97941.16;4899620;29;20038;-77
2021/08/24 00:45:08;;;;;;;14.43;10.52;;;;;;;16.67;73.13;97943.53;4883627;29;20147;-77
2021/08/24 00:47:35;;;;;;;14.45;9.98;;;;;;;16.76;73.13;97953.50;4914486;29;20159;-77
2021/08/24 00:50:06;;;;;;;15.60;11.05;;;;;;;16.65;73.26;97955.34;4910085;29;20058;-77
2021/08/24 00:52:32;;;;;;;15.20;10.88;;;;;;;16.76;73.04;97943.78;4899268;29;20104;-77
2021/08/24 00:54:57;;;;;;;14.13;10.50;;;;;;;16.80;73.13;97947.44;4899400;29;20131;-77
2021/08/24 00:57:26;;;;;;;13.75;10.50;;;;;;;16.71;73.05;97940.34;4913701;29;20448;-77
2021/08/24 00:59:55;;;;;;;13.27;10.80;;;;;;;16.70;73.13;97949.31;4902475;29;20035;-77
2021/08/24 01:02:22;;;;;;;12.27;10.25;;;;;;;16.83;72.82;97954.03;4951064;23;20676;-76
2021/08/24 01:04:49;;;;;;;12.90;10.27;;;;;;;16.80;72.72;97950.06;4921004;29;20518;-76
2021/08/24 01:07:23;;;;;;;13.88;10.75;;;;;;;16.73;72.67;97948.78;4905244;29;20122;-76
2021/08/24 01:10:02;;;;;;;13.35;10.27;;;;;;;16.54;72.81;97951.94;4936609;29;20075;-76
2021/08/24 01:12:36;;;;;;;12.55;10.05;;;;;;;16.73;72.70;97951.41;4935807;29;20106;-76
2021/08/24 01:15:21;;;;;;;13.77;10.68;;;;;;;16.46;73.01;97948.00;4953698;29;20027;-76
2021/08/24 01:17:53;;;;;;;12.73;10.02;;;;;;;16.51;72.65;97952.47;4952835;29;20094;-76
2021/08/24 01:20:28;;;;;;;11.57;10.27;;;;;;;16.47;73.09;97956.69;4936354;29;20490;-76
2021/08/24 01:23:15;;;;;;;11.45;9.73;;;;;;;16.42;73.06;97961.94;4920813;29;20500;-76
2021/08/24 01:26:01;;;;;;;11.52;9.10;;;;;;;16.41;72.62;97952.47;4920149;29;20039;-76
2021/08/24 01:28:39;;;;;;;12.18;9.35;;;;;;;16.29;73.05;97960.59;4917019;29;20039;-76
2021/08/24 01:31:29;;;;;;;10.60;8.40;;;;;;;16.33;72.77;97951.16;4932445;29;20040;-76
2021/08/24 01:34:19;;;;;;;10.50;8.85;;;;;;;16.24;72.72;97953.50;4921640;29;20042;-76
2021/08/24 01:36:51;;;;;;;14.30;9.90;;;;;;;16.36;72.52;97955.09;4951835;29;20031;-76
2021/08/24 01:39:49;;;;;;;9.23;8.23;;;;;;;16.15;72.44;97951.66;4920615;29;20039;-76
2021/08/24 01:42:19;;;;;;;9.82;7.68;;;;;;;16.41;71.70;97960.34;4952393;29;20043;-76
2021/08/24 01:44:54;;;;;;;9.95;8.02;;;;;;;16.32;71.60;97951.44;4920287;29;20042;-76
2021/08/24 01:47:38;;;;;;;11.63;8.18;;;;;;;16.12;72.64;97952.19;4920028;29;20082;-76
2021/08/24 01:50:18;;;;;;;9.68;8.00;;;;;;;16.20;72.01;97957.72;4953123;29;20058;-76
2021/08/24 01:52:51;;;;;;;11.48;7.82;;;;;;;16.06;72.62;97954.03;4919732;29;20039;-75
2021/08/24 01:55:23;;;;;;;10.23;8.02;;;;;;;16.14;72.24;97961.38;4920004;29;20035;-76
2021/08/24 01:58:08;;;;;;;10.18;7.25;;;;;;;16.06;72.07;97961.91;4919923;29;20031;-76
2021/08/24 02:00:36;;;;;;;9.60;7.75;;;;;;;16.07;72.00;97960.84;4903649;29;20043;-76
2021/08/24 02:03:06;;;;;;;10.18;7.65;;;;;;;16.03;71.92;97957.94;4924121;29;20059;-76
2021/08/24 02:05:44;;;;;;;7.82;6.97;;;;;;;15.92;71.80;97959.00;4900873;29;20058;-76
2021/08/24 02:08:14;;;;;;;9.27;7.40;;;;;;;15.88;71.89;97958.69;4897620;29;20559;-75
2021/08/24 02:10:40;;;;;;;10.82;7.90;;;;;;;15.85;72.37;97961.06;4881501;29;20447;-76
2021/08/24 02:13:06;;;;;;;9.07;7.22;;;;;;;15.92;72.19;97961.63;4897846;29;20032;-76
2021/08/24 02:15:40;;;;;;;7.95;7.15;;;;;;;15.78;72.13;97961.31;4881833;29;20527;-76
2021/08/24 02:18:08;;;;;;;8.98;6.80;;;;;;;15.79;72.02;97952.38;4897446;29;20054;-76
2021/08/24 02:20:42;;;;;;;9.98;7.50;;;;;;;15.61;72.41;97956.25;4881376;29;20040;-76
2021/08/24 02:23:16;;;;;;;7.82;6.10;;;;;;;15.48;72.88;97954.88;4898181;29;20047;-76
2021/08/24 02:25:46;;;;;;;8.20;6.75;;;;;;;15.46;72.57;97954.34;4919235;29;20128;-75
2021/08/24 02:28:15;;;;;;;9.75;6.15;;;;;;;15.61;72.30;97951.00;4919362;29;20035;-76
2021/08/24 02:30:45;;;;;;;6.63;5.93;;;;;;;15.55;72.31;97955.41;4903255;29;20035;-76
2021/08/24 02:33:11;;;;;;;8.77;6.13;;;;;;;15.65;72.05;97956.53;4934898;29;20035;-76
2021/08/24 02:35:40;;;;;;;10.10;6.55;;;;;;;15.55;72.28;97960.66;4919366;29;20098;-76
2021/08/24 02:38:14;;;;;;;8.25;6.45;;;;;;;15.50;72.19;97952.78;4902088;29;20032;-76
2021/08/24 02:40:55;;;;;;;6.70;6.00;;;;;;;15.57;71.96;97954.38;4896530;29;20095;-76
2021/08/24 02:44:03;;;;;;;8.27;6.47;;;;;;;15.40;72.40;97952.72;4913636;29;20044;-76
2021/08/24 02:46:32;;;;;;;7.55;5.60;;;;;;;15.49;71.82;97947.78;4890397;29;20051;-76
2021/08/24 02:48:59;;;;;;;6.93;6.03;;;;;;;15.54;72.20;97950.44;4913623;29;20273;-76
2021/08/24 02:51:27;;;;;;;8.85;6.35;;;;;;;15.47;71.73;97950.69;4899356;29;20036;-76
2021/08/24 02:54:27;;;;;;;9.55;6.18;;;;;;;15.24;72.37;97951.09;4915278;29;20079;-76
2021/08/24 02:56:54;;;;;;;7.03;6.28;;;;;;;15.48;72.13;97952.25;4927751;29;20043;-76
2021/08/24 02:59:19;;;;;;;9.13;6.07;;;;;;;15.44;71.90;97951.19;4934913;29;20047;-76
2021/08/24 03:01:45;;;;;;;7.75;5.95;;;;;;;15.42;71.98;97947.22;4933901;29;20039;-76
2021/08/24 03:04:11;;;;;;;11.90;6.07;;;;;;;15.34;72.27;97957.19;4923773;29;20413;-76
2021/08/24 03:06:44;;;;;;;8.20;5.72;;;;;;;15.21;72.44;97954.22;4915443;29;20032;-76
2021/08/24 03:09:11;;;;;;;7.85;6.10;;;;;;;15.19;72.36;97953.69;4915282;29;20103;-76
2021/08/24 03:12:14;;;;;;;7.95;5.60;;;;;;;15.00;72.57;97962.00;4914329;29;20497;-76
2021/08/24 03:14:58;;;;;;;7.28;5.90;;;;;;;14.92;72.69;97962.47;4931444;29;20040;-76
2021/08/24 03:17:45;;;;;;;8.02;6.00;;;;;;;14.92;72.80;97958.00;4899149;29;20035;-75
2021/08/24 03:20:15;;;;;;;7.07;5.90;;;;;;;15.01;72.17;97957.53;4915297;29;20046;-76
2021/08/24 03:22:42;;;;;;;8.35;5.82;;;;;;;15.03;72.43;97958.88;4915196;29;20570;-76
2021/08/24 03:25:11;;;;;;;7.85;5.43;;;;;;;14.90;72.47;97956.69;4899388;29;20032;-76
2021/08/24 03:27:41;;;;;;;7.30;5.88;;;;;;;14.90;72.53;97964.53;4897698;29;20428;-76
2021/08/24 03:30:11;;;;;;;7.88;5.57;;;;;;;14.90;72.89;97960.09;4900283;29;20103;-76
2021/08/24 03:32:38;;;;;;;8.38;5.93;;;;;;;14.92;72.79;97959.84;4880652;29;20032;-76
2021/08/24 03:35:05;;;;;;;6.70;5.07;;;;;;;14.85;72.47;97961.88;4896055;29;20028;-76
2021/08/24 03:37:31;;;;;;;7.55;5.80;;;;;;;14.84;72.28;97963.72;4880493;29;20099;-76
2021/08/24 03:39:56;;;;;;;7.20;5.68;;;;;;;14.76;72.66;97951.09;4880377;29;20032;-75
2021/08/24 03:42:22;;;;;;;6.78;5.85;;;;;;;14.73;72.64;97960.22;4895715;29;20035;-76
2021/08/24 03:44:47;;;;;;;8.65;6.25;;;;;;;14.67;73.36;97963.88;4890589;29;20494;-76
2021/08/24 03:47:14;;;;;;;8.65;5.38;;;;;;;14.59;73.13;97956.47;4914625;29;20094;-76
2021/08/24 03:49:40;;;;;;;5.88;5.10;;;;;;;14.49;73.14;97962.38;4899021;29;20031;-76
2021/08/24 03:52:06;;;;;;;6.45;5.18;;;;;;;14.46;72.73;97959.47;4899255;29;20045;-76
2021/08/24 03:54:32;;;;;;;5.90;4.85;;;;;;;14.49;72.91;97958.97;4899040;29;20450;-76
2021/08/24 03:56:58;;;;;;;7.90;5.80;;;;;;;14.52;72.92;97968.97;4898500;29;20032;-75
2021/08/24 03:59:23;;;;;;;6.72;5.38;;;;;;;14.52;73.28;97972.38;4883509;29;20510;-76
2021/08/24 04:01:49;;;;;;;6.47;5.15;;;;;;;14.47;73.08;97968.91;4897877;29;20111;-76
2021/08/24 04:04:14;;;;;;;6.57;5.47;;;;;;;14.42;73.20;97973.06;4898761;29;20549;-75
2021/08/24 04:06:40;;;;;;;7.35;5.07;;;;;;;14.38;73.63;97974.63;4920607;29;20352;-76
2021/08/24 04:09:05;;;;;;;7.20;5.30;;;;;;;14.37;73.46;97988.75;4902188;29;20114;-75
2021/08/24 04:11:31;;;;;;;7.50;4.97;;;;;;;14.38;73.22;97990.34;4930140;29;20032;-76
2021/08/24 04:13:59;;;;;;;6.93;5.38;;;;;;;14.37;72.86;97988.75;4898511;29;20122;-76
2021/08/24 04:16:25;;;;;;;5.88;4.82;;;;;;;14.32;73.21;97986.06;4914395;29;20028;-76
2021/08/24 04:18:50;;;;;;;7.90;5.07;;;;;;;14.36;73.13;97994.22;4914497;29;20086;-76
2021/08/24 04:21:18;;;;;;;6.70;5.10;;;;;;;14.25;73.04;97995.97;4915039;29;20035;-75
2021/08/24 04:23:45;;;;;;;5.55;4.57;;;;;;;14.22;73.17;97993.84;4914525;29;20071;-76
2021/08/24 04:26:11;;;;;;;6.47;4.90;;;;;;;14.21;72.81;97997.50;4916575;29;20048;-76
2021/08/24 04:28:37;;;;;;;6.95;5.20;;;;;;;14.10;73.12;97993.19;4917895;29;20035;-76
2021/08/24 04:31:04;;;;;;;6.28;5.28;;;;;;;14.05;73.59;98002.59;4901804;29;20032;-76
2021/08/24 04:33:33;;;;;;;7.03;5.18;;;;;;;14.01;73.27;98003.31;4886790;29;20039;-76
2021/08/24 04:35:59;;;;;;;6.25;5.10;;;;;;;13.96;73.72;98000.66;4902257;29;20510;-76
2021/08/24 04:38:24;;;;;;;5.70;4.43;;;;;;;13.88;73.65;98004.50;4917788;29;20103;-76
2021/08/24 04:40:52;;;;;;;7.85;4.80;;;;;;;13.91;73.69;98005.81;4914973;29;20031;-76
2021/08/24 04:43:18;;;;;;;6.25;4.65;;;;;;;13.88;73.55;98014.97;4902491;29;20041;-76
2021/08/24 04:45:44;;;;;;;7.88;4.70;;;;;;;13.88;73.35;98008.94;4918111;29;20115;-76
2021/08/24 04:48:12;;;;;;;6.53;5.30;;;;;;;13.84;73.38;98011.25;4934146;29;20390;-76
2021/08/24 04:50:37;;;;;;;6.03;4.40;;;;;;;13.96;73.81;98011.91;4915353;29;20118;-75
2021/08/24 04:53:06;;;;;;;7.70;5.45;;;;;;;13.95;73.65;98012.16;4918781;29;20046;-76
2021/08/24 04:55:33;;;;;;;6.03;4.90;;;;;;;13.86;73.85;98017.03;4886535;29;20062;-76
2021/08/24 04:57:58;;;;;;;6.00;4.68;;;;;;;13.83;73.50;98012.31;4917375;29;20058;-76
2021/08/24 05:00:25;;;;;;;7.07;5.25;;;;;;;13.82;73.76;98026.41;4916330;29;20044;-76
2021/08/24 05:02:52;;;;;;;5.63;4.38;;;;;;;13.86;73.14;98017.03;4900941;29;20087;-76
2021/08/24 05:05:21;;;;;;;4.93;4.15;;;;;;;13.94;73.46;98013.97;4916833;29;20077;-76
2021/08/24 05:07:46;;;;;;;7.60;4.70;;;;;;;13.97;73.38;98017.94;4930577;29;20498;-76
2021/08/24 05:10:12;;;;;;;8.05;4.55;;;;;;;13.95;73.42;98026.06;4933412;29;20066;-76
2021/08/24 05:12:37;;;;;;;7.20;4.40;;;;;;;13.98;73.27;98025.56;4916210;29;20566;-76
2021/08/24 05:15:03;;;;;;;7.13;4.65;;;;;;;14.02;73.65;98021.41;4916886;29;20036;-76
2021/08/24 05:17:29;;;;;;;5.60;4.60;;;;;;;14.09;73.16;98025.69;4900037;29;20035;-76
2021/08/24 05:19:54;;;;;;;5.15;4.10;;;;;;;14.09;73.08;98030.91;4916518;29;20032;-75
2021/08/24 05:22:20;;;;;;;6.05;4.10;;;;;;;14.12;73.36;98019.91;4899964;29;20051;-76
2021/08/24 05:24:48;;;;;;;5.35;4.13;;;;;;;14.02;73.37;98026.66;4898091;29;20032;-75
2021/08/24 05:27:17;;;;;;;6.20;3.97;;;;;;;14.03;72.75;98028.25;4881906;29;20496;-76
2021/08/24 05:29:42;;;;;;;6.57;3.88;;;;;;;14.16;73.66;98021.03;4881572;29;20035;-75
2021/08/24 05:32:08;;;;;;;7.45;4.18;;;;;;;14.19;73.06;98020.53;4896834;29;20051;-75
2021/08/24 05:34:33;;;;;;;8.63;4.18;;;;;;;14.12;72.59;98019.91;4882733;29;20055;-76
2021/08/24 05:36:59;;;;;;;5.68;4.00;;;;;;;14.13;73.39;98016.28;4893888;29;20650;-75
2021/08/24 05:39:24;;;;;;;5.53;4.13;;;;;;;14.22;73.13;98031.31;4884966;29;20035;-76
2021/08/24 05:41:50;;;;;;;4.65;3.58;;;;;;;14.16;73.07;98021.03;4885111;29;20123;-75
2021/08/24 05:44:15;;;;;;;4.68;3.72;;;;;;;14.17;72.86;98030.44;4901312;29;20091;-76
2021/08/24 05:46:40;;;;;;;6.28;3.58;;;;;;;14.22;73.00;98030.50;4933673;29;20062;-76
2021/08/24 05:49:09;;;;;;;6.70;3.70;;;;;;;14.20;73.01;98038.59;4885688;29;20423;-76
2021/08/24 05:51:36;;;;;;;6.32;4.40;;;;;;;14.13;72.87;98039.84;4901843;29;20138;-75
2021/08/24 05:54:03;;;;;;;5.53;3.40;;;;;;;14.08;72.85;98034.56;4916777;29;20491;-76
2021/08/24 05:56:29;;;;;;;3.83;2.90;;;;;;;14.15;73.09;98024.69;4932831;29;20387;-76
2021/08/24 05:58:55;;;;;;;3.92;3.50;;;;;;;14.21;72.78;98034.97;4916542;29;20031;-76
2021/08/24 06:01:28;;;;;;;4.88;3.30;;;;;;;14.13;73.34;98040.63;4900660;29;20064;-76
2021/08/24 06:03:55;;;;;;;4.88;3.13;;;;;;;14.34;72.63;98033.78;4881987;29;20054;-76
2021/08/24 06:06:29;;;;;;;3.80;3.17;;;;;;;14.27;72.70;98040.25;4869732;29;20047;-76
2021/08/24 06:08:56;;;;;;;4.88;3.10;;;;;;;14.43;72.63;98034.91;4885144;29;20387;-76
2021/08/24 06:11:30;;;;;;;4.60;3.13;;;;;;;14.39;72.16;98033.84;4916512;29;20111;-76
2021/08/24 06:13:57;;;;;;;5.15;2.97;;;;;;;14.46;72.57;98036.25;4915355;29;20063;-76
2021/08/24 06:16:23;;;;;;;4.13;3.08;;;;;;;14.55;72.01;98036.59;4916148;29;20483;-76
2021/08/24 06:18:48;;;;;;;4.30;2.70;;;;;;;14.39;71.84;98033.84;4885060;29;20257;-76
2021/08/24 06:21:15;;;;;;;5.25;3.55;;;;;;;14.56;72.68;98035.56;4915042;29;20059;-76
2021/08/24 06:23:40;;;;;;;4.10;2.60;;;;;;;14.44;72.01;98038.31;4915851;29;20063;-75
2021/08/24 06:26:06;;;;;;;4.15;2.72;;;;;;;14.30;71.87;98042.38;4901714;29;20500;-76
2021/08/24 06:28:32;;;;;;;4.55;3.20;;;;;;;14.34;72.43;98041.66;4871704;29;20031;-75
2021/08/24 06:30:59;;;;;;;3.92;2.65;;;;;;;14.47;71.93;98047.53;4882335;29;20040;-76
2021/08/24 06:33:32;;;;;;;4.35;3.10;;;;;;;14.30;71.76;98052.88;4898795;29;20111;-76
2021/08/24 06:35:58;;;;;;;4.25;2.53;;;;;;;14.56;71.56;98040.78;4896122;29;20091;-76
2021/08/24 06:38:24;;;;;;;3.78;2.95;;;;;;;14.78;71.49;98049.41;4891503;29;20487;-75
2021/08/24 06:40:49;;;;;;;3.15;2.53;;;;;;;14.85;71.48;98043.16;4883241;29;20071;-75
2021/08/24 06:43:16;;;;;;;3.45;2.13;;;;;;;14.85;70.68;98046.56;4882215;29;20032;-76
2021/08/24 06:45:42;;;;;;;5.57;2.53;;;;;;;14.89;70.50;98046.84;4883368;29;20379;-76
2021/08/24 06:48:08;;;;;;;3.83;2.20;;;;;;;15.08;70.66;98047.25;4916318;29;20044;-76
2021/08/24 06:50:34;;;;;;;3.60;2.25;;;;;;;15.23;69.83;98041.34;4896573;29;20123;-75
2021/08/24 06:53:00;;;;;;;2.97;2.15;;;;;;;15.21;69.25;98040.81;4900493;29;20372;-75
2021/08/24 06:55:30;;;;;;;3.10;2.33;;;;;;;15.13;69.69;98044.66;4913978;29;20115;-76
2021/08/24 06:57:58;;;;;;;3.20;1.92;;;;;;;15.10;69.33;98040.72;4899949;29;20059;-76
2021/08/24 07:00:25;;;;;;;4.32;1.92;;;;;;;15.60;68.78;98043.13;4898643;29;20475;-76
2021/08/24 07:02:53;;;;;;;5.78;2.30;;;;;;;15.40;68.47;98038.56;4899099;29;20040;-76
2021/08/24 07:05:20;;;;;;;2.42;1.80;;;;;;;15.69;68.78;98041.59;4898625;29;20043;-76
2021/08/24 07:07:46;;;;;;;3.83;2.28;;;;;;;15.78;67.62;98037.47;4898526;29;20035;-75
2021/08/24 07:10:12;;;;;;;2.90;1.90;;;;;;;15.67;68.07;98044.47;4897558;29;20541;-76
2021/08/24 07:12:39;;;;;;;2.83;1.67;;;;;;;15.78;66.90;98050.59;4897558;29;20040;-75
2021/08/24 07:15:06;;;;;;;2.17;1.63;;;;;;;15.95;66.53;98050.38;4881881;29;20058;-76
2021/08/24 07:17:32;;;;;;;3.20;2.03;;;;;;;16.09;66.79;98048.06;4897716;29;20035;-76
2021/08/24 07:19:58;;;;;;;2.78;1.48;;;;;;;15.96;66.15;98044.09;4913817;29;20114;-76
2021/08/24 07:22:24;;;;;;;4.47;1.60;;;;;;;16.18;66.31;98046.53;4914276;29;20028;-76
2021/08/24 07:24:49;;;;;;;2.47;1.50;;;;;;;16.29;65.35;98040.22;4891528;29;20130;-75
2021/08/24 07:27:17;;;;;;;2.45;1.42;;;;;;;16.50;65.81;98050.00;4896920;29;20393;-76
2021/08/24 07:29:45;;;;;;;2.88;1.27;;;;;;;16.63;65.72;98039.75;4894525;29;20032;-75
2021/08/24 07:32:11;;;;;;;2.33;1.88;;;;;;;16.71;65.04;98037.66;4899821;29;20031;-75
2021/08/24 07:34:37;;;;;;;2.60;1.70;;;;;;;17.06;64.44;98038.72;4899945;29;20115;-76
2021/08/24 07:37:02;;;;;;;3.00;1.88;;;;;;;17.16;63.46;98036.09;4884654;29;20043;-76
2021/08/24 07:39:28;;;;;;;3.13;1.52;;;;;;;16.96;62.67;98042.94;4910250;29;20040;-76
2021/08/24 07:41:53;;;;;;;4.78;1.27;;;;;;;17.06;61.03;98041.38;4886282;29;20732;-75
2021/08/24 07:44:23;;;;;;;3.25;1.70;;;;;;;17.31;62.07;98040.53;4913200;29;20042;-76
2021/08/24 07:46:52;;;;;;;2.90;1.25;;;;;;;17.47;61.71;98036.81;4908917;29;20422;-75
2021/08/24 07:49:18;;;;;;;1.92;1.17;;;;;;;17.35;60.13;98039.72;4908140;29;20078;-76
2021/08/24 07:51:44;;;;;;;2.58;1.55;;;;;;;17.54;60.29;98039.94;4913082;29;20063;-76
2021/08/24 07:54:10;;;;;;;1.52;1.20;;;;;;;17.96;59.13;98032.72;4910177;29;20114;-76
2021/08/24 07:56:36;;;;;;;4.15;1.83;;;;;;;18.01;59.57;98032.69;4901900;29;20475;-76
2021/08/24 07:59:02;;;;;;;2.45;1.40;;;;;;;17.97;58.13;98044.81;4902541;29;20039;-76
2021/08/24 08:01:28;;;;;;;2.33;1.20;;;;;;;17.90;57.72;98041.69;4935913;28;20123;-76
2021/08/24 08:03:53;;;;;;;2.13;1.38;;;;;;;17.75;59.18;98048.59;4911327;29;20142;-76
2021/08/24 08:06:19;;;;;;;2.40;1.15;;;;;;;17.85;58.37;98034.56;4899467;29;20626;-75
2021/08/24 08:08:44;;;;;;;2.40;1.30;;;;;;;17.71;58.21;98037.00;4904453;29;20040;-76
2021/08/24 08:11:09;;;;;;;2.22;1.20;;;;;;;17.74;57.11;98033.81;4885745;29;20065;-76
2021/08/24 08:13:35;;;;;;;2.05;1.40;;;;;;;18.22;56.30;98032.59;4899068;29;20670;-76
2021/08/24 08:16:00;;;;;;;1.40;1.17;;;;;;;18.39;55.99;98030.34;4914964;29;20043;-75
2021/08/24 08:18:26;;;;;;;3.60;1.50;;;;;;;18.76;55.43;98029.03;4931614;29;20036;-76
2021/08/24 08:20:52;;;;;;;1.75;1.20;;;;;;;18.68;55.03;98027.78;4905570;29;20046;-76
2021/08/24 08:23:19;;;;;;;1.88;1.10;;;;;;;18.59;54.46;98026.00;4915532;29;20035;-76
2021/08/24 08:25:44;;;;;;;1.27;0.80;;;;;;;18.68;53.95;98032.28;4890525;29;20047;-76
2021/08/24 08:28:11;;;;;;;3.17;1.65;;;;;;;18.21;53.36;98023.88;4882535;29;20031;-76
2021/08/24 08:30:36;;;;;;;1.77;1.02;;;;;;;18.33;53.98;98031.44;4902806;29;20093;-76
2021/08/24 08:33:04;;;;;;;1.40;1.10;;;;;;;18.45;53.05;98023.19;4933872;29;20043;-76
2021/08/24 08:35:30;;;;;;;2.15;1.20;;;;;;;18.34;52.34;98022.47;4925849;29;20062;-76
2021/08/24 08:37:56;;;;;;;1.35;1.20;;;;;;;18.62;52.94;98018.31;4898866;29;20087;-76
2021/08/24 08:40:32;;;;;;;2.58;1.27;;;;;;;18.60;51.58;98031.00;4899889;29;20042;-76
2021/08/24 08:43:04;;;;;;;2.03;1.08;;;;;;;18.95;50.84;98015.97;4904042;29;20112;-76
2021/08/24 08:45:42;;;;;;;2.00;1.33;;;;;;;18.61;51.63;98026.50;4883085;29;20043;-76
2021/08/24 08:48:30;;;;;;;2.53;1.40;;;;;;;18.51;51.56;98016.84;4878121;29;20036;-76
2021/08/24 08:51:54;;;;;;;1.58;1.15;;;;;;;18.45;49.74;98012.66;4892944;29;20110;-76
2021/08/24 08:54:38;;;;;;;1.80;1.33;;;;;;;19.19;50.72;98025.78;4846814;29;20494;-76
2021/08/24 08:57:10;;;;;;;1.52;0.90;;;;;;;18.93;48.97;98018.09;4893602;29;20032;-76
2021/08/24 08:59:44;;;;;;;2.50;1.17;;;;;;;18.83;49.00;98020.81;4888975;29;20034;-75
2021/08/24 09:02:22;;;;;;;1.42;1.00;;;;;;;18.93;49.06;98026.00;4911884;29;20043;-76
2021/08/24 09:04:48;;;;;;;2.53;1.13;;;;;;;19.08;49.40;98019.81;4905458;29;20035;-76
2021/08/24 09:07:18;;;;;;;2.22;1.02;;;;;;;18.84;49.56;98017.13;4893318;29;20039;-75
2021/08/24 09:09:43;;;;;;;1.75;1.33;;;;;;;19.06;49.04;98014.81;4916796;29;20390;-75
2021/08/24 09:12:10;;;;;;;1.35;1.05;;;;;;;19.35;47.63;98018.50;4924261;29;20035;-75
2021/08/24 09:14:46;;;;;;;1.13;1.02;;;;;;;19.33;48.24;98025.88;4902307;29;20034;-76
2021/08/24 09:17:31;;;;;;;3.72;1.70;;;;;;;19.51;47.84;98019.09;4899162;29;20047;-76
2021/08/24 09:20:03;;;;;;;2.05;1.30;;;;;;;19.54;47.69;98014.06;4891668;29;20035;-76
2021/08/24 09:22:28;;;;;;;1.40;1.10;;;;;;;19.95;47.91;98010.16;4917543;29;20039;-76
2021/08/24 09:24:56;;;;;;;1.38;1.20;;;;;;;19.92;47.59;98011.50;4918036;29;20035;-76
2021/08/24 09:27:51;;;;;;;2.20;1.48;;;;;;;19.83;47.11;98018.50;4914263;29;20047;-76
2021/08/24 09:30:17;;;;;;;2.13;1.33;;;;;;;20.10;48.01;98015.22;4882737;29;20071;-76
2021/08/24 09:32:43;;;;;;;2.45;1.13;;;;;;;20.20;47.52;98022.22;4893230;29;20487;-76
2021/08/24 09:35:18;;;;;;;2.50;1.17;;;;;;;20.21;48.20;98024.56;4891619;29;20109;-76
2021/08/24 09:37:43;;;;;;;2.22;1.30;;;;;;;20.49;46.86;98029.22;4914809;29;20063;-76
2021/08/24 09:40:12;;;;;;;4.85;1.38;;;;;;;20.48;47.46;98025.00;4906301;29;20043;-76
2021/08/24 09:42:41;;;;;;;2.00;1.30;;;;;;;20.65;46.43;98027.94;4898777;29;20051;-76
2021/08/24 09:45:28;;;;;;;1.42;1.17;;;;;;;19.91;47.66;98025.00;4900945;29;20094;-76
2021/08/24 09:47:56;;;;;;;1.42;1.25;;;;;;;20.24;47.45;98025.06;4917874;29;20048;-76
2021/08/24 09:50:28;;;;;;;1.98;1.27;;;;;;;20.55;47.14;98020.13;4923917;29;20036;-76
2021/08/24 09:52:54;;;;;;;1.80;1.10;;;;;;;21.03;47.24;98030.50;4903164;29;20039;-77
2021/08/24 09:55:30;;;;;;;1.55;1.23;;;;;;;20.60;46.75;98022.69;4922512;29;20040;-77
2021/08/24 09:58:01;;;;;;;3.40;1.38;;;;;;;20.66;46.77;98034.78;4901430;29;20795;-76
2021/08/24 10:00:30;;;;;;;2.08;1.23;;;;;;;20.61;46.25;98029.56;4901710;29;20032;-76
2021/08/24 10:02:58;;;;;;;2.72;1.70;;;;;;;20.95;46.23;98031.94;4924870;29;20063;-76
2021/08/24 10:05:23;;;;;;;2.05;1.42;;;;;;;20.73;45.27;98023.84;4885799;29;20462;-76
2021/08/24 10:07:54;;;;;;;3.08;1.60;;;;;;;20.63;44.77;98030.09;4915718;29;20035;-77
2021/08/24 10:10:26;;;;;;;1.88;1.38;;;;;;;20.86;45.36;98022.31;4922156;29;20040;-76
2021/08/24 10:12:53;;;;;;;3.90;1.45;;;;;;;20.86;45.70;98017.03;4898741;29;20031;-76
2021/08/24 10:15:26;;;;;;;1.60;1.20;;;;;;;20.61;45.92;98010.25;4900959;29;20039;-76
2021/08/24 10:18:00;;;;;;;2.30;1.38;;;;;;;21.30;46.20;98011.22;4933757;29;20035;-76
2021/08/24 10:20:30;;;;;;;3.75;1.20;;;;;;;21.63;45.27;98010.34;4916473;29;20032;-75
2021/08/24 10:22:56;;;;;;;1.58;1.45;;;;;;;21.87;43.16;98008.25;4902841;29;20035;-76
2021/08/24 10:25:26;;;;;;;2.55;1.30;;;;;;;21.93;44.35;98002.84;4935866;29;20700;-76
2021/08/24 10:28:07;;;;;;;1.98;1.55;;;;;;;22.02;45.23;98006.34;4895562;29;20027;-76
2021/08/24 10:30:51;;;;;;;1.58;1.33;;;;;;;21.89;44.07;98011.38;4915709;29;20032;-76
2021/08/24 10:33:25;;;;;;;2.13;1.80;;;;;;;22.26;44.01;98006.88;4891061;29;20043;-76
2021/08/24 10:35:55;;;;;;;2.55;1.42;;;;;;;22.54;44.25;98011.31;4908209;29;20625;-76
2021/08/24 10:39:01;;;;;;;1.98;1.38;;;;;;;22.90;43.43;98005.13;4893060;29;20096;-76
2021/08/24 10:41:42;;;;;;;2.50;1.50;;;;;;;22.42;43.68;98009.97;4929220;29;20036;-76
2021/08/24 10:44:28;;;;;;;1.58;1.30;;;;;;;21.61;43.71;98007.19;4900569;29;20086;-76
2021/08/24 10:47:00;;;;;;;2.25;1.40;;;;;;;21.78;44.14;98015.34;4882375;29;20055;-76
2021/08/24 10:49:26;;;;;;;1.50;1.13;;;;;;;22.41;43.64;98008.44;4917989;29;20031;-76
2021/08/24 10:52:36;;;;;;;2.08;1.58;;;;;;;22.43;43.93;98003.59;4938919;29;20067;-75
2021/08/24 10:55:15;;;;;;;1.55;1.45;;;;;;;22.58;44.57;98007.72;4864247;29;20044;-76
2021/08/24 10:57:55;;;;;;;2.30;1.33;;;;;;;22.00;44.02;97992.59;4915823;29;20035;-75
2021/08/24 11:00:49;;;;;;;2.17;1.55;;;;;;;22.34;43.68;98002.72;4915781;29;20516;-76
2021/08/24 11:03:44;;;;;;;2.22;1.48;;;;;;;22.57;45.10;98003.53;4915516;29;20534;-76
2021/08/24 11:06:33;;;;;;;2.17;1.70;;;;;;;22.77;43.93;98006.75;4895256;29;20071;-76
2021/08/24 11:09:06;;;;;;;2.15;1.60;;;;;;;22.80;44.18;98000.84;4890620;29;20032;-76
2021/08/24 11:12:05;;;;;;;2.40;1.67;;;;;;;23.05;43.70;97995.97;4932850;29;20027;-76
2021/08/24 11:14:37;;;;;;;2.20;1.55;;;;;;;23.54;43.83;98008.22;4898056;29;20061;-76
2021/08/24 11:17:41;;;;;;;3.33;1.45;;;;;;;23.72;43.35;98002.94;4944012;29;20039;-76
2021/08/24 11:20:06;;;;;;;1.73;1.17;;;;;;;23.95;41.35;98000.19;4898799;29;20154;-76
2021/08/24 11:22:57;;;;;;;3.47;1.70;;;;;;;23.72;43.70;97998.41;4914173;29;20341;-76
2021/08/24 11:25:43;;;;;;;2.10;1.90;;;;;;;23.65;42.73;98006.06;4898143;29;20044;-76
2021/08/24 11:28:10;;;;;;;3.10;1.60;;;;;;;23.61;43.04;98002.44;4879097;29;20424;-76
2021/08/24 11:30:44;;;;;;;1.77;1.42;;;;;;;23.62;44.39;98005.91;4879246;29;20522;-76
2021/08/24 11:33:09;;;;;;;2.55;1.77;;;;;;;23.47;43.36;98002.56;4899865;29;20075;-76
2021/08/24 11:35:51;;;;;;;1.80;1.65;;;;;;;23.36;44.91;97996.75;4927026;29;20475;-77
2021/08/24 11:38:22;;;;;;;3.67;2.53;;;;;;;23.42;45.04;97994.72;4894949;29;20036;-76
2021/08/24 11:41:10;;;;;;;1.75;1.65;;;;;;;23.44;45.06;97997.88;4889958;29;20094;-75
2021/08/24 11:43:49;;;;;;;2.65;1.65;;;;;;;23.03;45.15;97993.63;4895374;29;20047;-76
2021/08/24 11:46:27;;;;;;;2.80;1.90;;;;;;;22.62;46.24;98000.75;4890110;29;20031;-76
2021/08/24 11:49:08;;;;;;;3.67;1.83;;;;;;;22.13;47.13;97998.97;4927566;29;20082;-76